Time;durP1;ratioP1;P1;durP2;ratioP2;P2;SDS_P1;SDS_P2;PMS_P1;PMS_P2;Temp;Humidity;BMP_temperature;BMP_pressure;BME280_temperature;BME280_humidity;BME280_pressure;Samples;Min_cycle;Max_cycle;Signal;HPM_P1;HPM_P2
2021/01/07 00:01:27;;;;;;;42.88;37.22;;;;;;;6.47;73.13;101035.72;5028290;28;20037;-43
2021/01/07 00:03:53;;;;;;;54.53;43.78;;;;;;;6.34;73.62;101035.72;5028389;28;20041;-44
2021/01/07 00:06:18;;;;;;;45.35;38.15;;;;;;;6.22;74.33;101027.50;5029189;28;20497;-47
2021/01/07 00:08:44;;;;;;;52.25;40.20;;;;;;;6.55;73.40;101029.38;5028066;28;20124;-44
2021/01/07 00:11:10;;;;;;;46.33;39.45;;;;;;;6.39;73.65;101012.75;5028164;28;20037;-45
2021/01/07 00:13:36;;;;;;;39.17;34.92;;;;;;;6.61;73.31;101009.91;5031947;28;20076;-44
2021/01/07 00:16:05;;;;;;;36.47;30.10;;;;;;;6.65;72.56;100997.00;5043190;28;20056;-45
2021/01/07 00:18:31;;;;;;;38.20;34.08;;;;;;;6.69;72.87;100995.53;5044448;28;20045;-45
2021/01/07 00:20:57;;;;;;;42.25;35.20;;;;;;;6.53;73.12;100986.13;5045188;28;20477;-44
2021/01/07 00:23:23;;;;;;;46.72;41.90;;;;;;;6.43;73.12;100991.88;5042200;28;20494;-45
2021/01/07 00:25:51;;;;;;;48.03;38.85;;;;;;;6.25;73.87;100985.31;5044865;28;20068;-44
2021/01/07 00:28:18;;;;;;;56.88;41.08;;;;;;;6.09;73.92;100991.03;5043103;28;20064;-45
2021/01/07 00:30:45;;;;;;;58.47;43.58;;;;;;;6.09;74.32;100990.22;5045197;28;20075;-47
2021/01/07 00:33:12;;;;;;;60.97;48.67;;;;;;;6.20;74.04;100998.41;5043011;28;20036;-44
2021/01/07 00:35:37;;;;;;;52.15;43.90;;;;;;;6.31;73.90;100991.69;5045304;28;20048;-44
2021/01/07 00:38:03;;;;;;;53.08;46.70;;;;;;;6.39;73.48;100991.47;5033768;28;20037;-46
2021/01/07 00:40:29;;;;;;;48.40;41.80;;;;;;;6.40;73.83;100997.63;5037195;28;20037;-47
2021/01/07 00:42:55;;;;;;;56.50;44.83;;;;;;;6.40;73.74;100997.63;5028146;28;20079;-48
2021/01/07 00:45:21;;;;;;;59.05;44.67;;;;;;;6.50;73.60;101005.19;5028075;28;20034;-49
2021/01/07 00:47:46;;;;;;;75.57;52.13;;;;;;;6.61;73.26;101002.72;5027628;28;20038;-46
2021/01/07 00:50:12;;;;;;;59.78;53.50;;;;;;;6.70;73.05;101003.34;5028025;28;20540;-48
2021/01/07 00:52:41;;;;;;;48.72;41.15;;;;;;;6.56;73.27;100986.53;5028332;28;20092;-44
2021/01/07 00:55:11;;;;;;;43.30;37.35;;;;;;;6.47;73.29;100979.78;5027534;28;20069;-46
2021/01/07 00:57:37;;;;;;;49.83;37.15;;;;;;;6.40;73.81;100982.44;5021743;28;20053;-47
2021/01/07 01:00:16;;;;;;;58.70;40.45;;;;;;;6.58;73.34;100978.34;5027925;28;20041;-46
2021/01/07 01:02:42;;;;;;;56.75;41.22;;;;;;;6.54;73.53;100977.09;5030730;28;20039;-46
2021/01/07 01:05:08;;;;;;;57.60;37.22;;;;;;;6.59;73.66;100969.31;5027752;28;20029;-43
2021/01/07 01:07:34;;;;;;;49.38;37.55;;;;;;;6.77;73.23;100966.81;5031335;28;20060;-47
2021/01/07 01:10:00;;;;;;;36.78;32.75;;;;;;;6.70;72.96;100967.88;5030967;28;20037;-46
2021/01/07 01:12:26;;;;;;;38.42;31.73;;;;;;;6.84;73.06;100968.63;5034279;28;20044;-43
2021/01/07 01:14:51;;;;;;;32.67;29.15;;;;;;;6.90;72.76;100965.97;5034126;28;20037;-45
2021/01/07 01:17:17;;;;;;;42.17;25.58;;;;;;;6.92;72.52;100955.91;5034174;28;20065;-44
2021/01/07 01:19:43;;;;;;;30.85;24.20;;;;;;;6.98;72.55;100955.09;5033942;28;20037;-46
2021/01/07 01:22:08;;;;;;;29.10;23.92;;;;;;;6.94;72.59;100955.69;5034121;28;20049;-43
2021/01/07 01:24:34;;;;;;;22.38;18.42;;;;;;;6.84;73.00;100948.16;5027481;28;20029;-45
2021/01/07 01:27:01;;;;;;;23.88;20.20;;;;;;;6.88;73.12;100960.03;5033820;28;20033;-45
2021/01/07 01:29:27;;;;;;;23.08;19.33;;;;;;;6.95;72.54;100950.16;5033316;28;20053;-43
2021/01/07 01:31:53;;;;;;;31.27;24.42;;;;;;;6.95;72.69;100958.16;5034024;28;20098;-44
2021/01/07 01:34:20;;;;;;;39.22;27.85;;;;;;;6.89;72.86;100951.03;5034279;28;20038;-44
2021/01/07 01:36:46;;;;;;;33.50;26.60;;;;;;;6.89;72.96;100959.00;5033968;28;20072;-45
2021/01/07 01:39:14;;;;;;;35.28;27.42;;;;;;;6.87;72.78;100953.03;5034181;28;20047;-47
2021/01/07 01:41:43;;;;;;;31.90;26.50;;;;;;;6.73;73.57;100957.63;5033613;28;20117;-43
2021/01/07 01:44:10;;;;;;;33.58;27.52;;;;;;;6.84;73.28;100945.50;5034016;28;20044;-43
2021/01/07 01:46:36;;;;;;;30.92;26.98;;;;;;;6.78;73.22;100947.16;5043601;28;20037;-46
2021/01/07 01:49:02;;;;;;;25.20;20.70;;;;;;;6.75;73.36;100941.41;5050073;28;20493;-45
2021/01/07 01:51:32;;;;;;;22.50;20.00;;;;;;;6.90;73.07;100943.84;5049537;28;20034;-45
2021/01/07 01:53:58;;;;;;;26.48;19.40;;;;;;;6.87;72.72;100947.72;5050634;28;20033;-48
2021/01/07 01:56:24;;;;;;;26.40;23.15;;;;;;;6.97;72.76;100945.44;5049300;28;20041;-49
2021/01/07 01:58:53;;;;;;;29.45;21.90;;;;;;;6.88;72.89;100938.72;5050019;28;20357;-43
2021/01/07 02:01:19;;;;;;;27.77;23.02;;;;;;;6.96;72.96;100942.97;5048881;28;20034;-42
2021/01/07 02:03:45;;;;;;;26.13;21.30;;;;;;;6.87;72.97;100942.38;5050290;28;20040;-45
2021/01/07 02:06:16;;;;;;;23.85;20.50;;;;;;;6.75;73.57;100955.56;5048618;28;20033;-45
2021/01/07 02:08:43;;;;;;;25.35;22.42;;;;;;;6.54;74.19;100939.81;5050559;28;20063;-43
2021/01/07 02:11:16;;;;;;;28.92;22.10;;;;;;;6.69;73.85;100948.38;5048362;28;20394;-45
2021/01/07 02:13:47;;;;;;;33.42;24.30;;;;;;;6.75;73.26;100936.06;5027603;28;20052;-42
2021/01/07 02:16:19;;;;;;;36.83;22.75;;;;;;;6.77;73.65;100931.38;5033022;28;20051;-43
2021/01/07 02:18:45;;;;;;;32.00;25.85;;;;;;;6.61;74.19;100949.44;5033245;28;20041;-44
2021/01/07 02:21:10;;;;;;;25.17;20.52;;;;;;;6.81;73.57;100943.25;5033177;28;20033;-44
2021/01/07 02:23:49;;;;;;;25.23;20.70;;;;;;;6.94;72.88;100943.22;5031717;28;20041;-43
2021/01/07 02:26:15;;;;;;;28.67;22.63;;;;;;;6.96;73.11;100948.31;5032908;28;20033;-42
2021/01/07 02:28:41;;;;;;;26.83;20.02;;;;;;;6.97;73.08;100944.63;5031307;28;20061;-42
2021/01/07 02:31:06;;;;;;;23.88;17.80;;;;;;;6.97;72.97;100925.97;5032906;28;20445;-42
2021/01/07 02:33:32;;;;;;;21.38;17.35;;;;;;;7.02;72.85;100936.81;5032712;28;20037;-45
2021/01/07 02:35:58;;;;;;;21.23;16.10;;;;;;;6.98;73.11;100941.75;5033247;28;20497;-42
2021/01/07 02:38:24;;;;;;;17.05;13.88;;;;;;;6.99;73.11;100932.75;5060859;28;20136;-43
2021/01/07 02:40:49;;;;;;;26.42;12.50;;;;;;;7.02;73.21;100933.34;5049651;28;20178;-47
2021/01/07 02:43:15;;;;;;;19.02;12.50;;;;;;;6.85;73.62;100931.13;5048107;28;20037;-46
2021/01/07 02:45:40;;;;;;;14.82;12.02;;;;;;;6.76;73.61;100930.53;5049527;28;20462;-42
2021/01/07 02:48:06;;;;;;;11.85;10.70;;;;;;;6.75;73.84;100915.59;5048196;28;20385;-45
2021/01/07 02:50:31;;;;;;;14.63;10.90;;;;;;;6.81;73.99;100912.06;5048972;28;20032;-45
2021/01/07 02:52:57;;;;;;;16.90;10.05;;;;;;;6.87;74.05;100910.41;5049168;28;20048;-46
2021/01/07 02:55:22;;;;;;;14.00;12.50;;;;;;;7.04;73.17;100905.41;5047571;28;20048;-45
2021/01/07 02:57:48;;;;;;;15.00;11.93;;;;;;;7.08;73.05;100906.66;5049332;28;20068;-48
2021/01/07 03:00:14;;;;;;;13.98;9.68;;;;;;;7.14;72.48;100911.13;5046404;28;20043;-44
2021/01/07 03:02:39;;;;;;;11.23;9.38;;;;;;;7.14;72.90;100908.47;5049207;28;20124;-42
2021/01/07 03:05:05;;;;;;;18.33;14.18;;;;;;;7.17;72.93;100897.38;5048582;28;20163;-47
2021/01/07 03:07:31;;;;;;;30.27;21.52;;;;;;;7.09;72.89;100896.81;5045066;28;20034;-50
2021/01/07 03:09:56;;;;;;;27.98;24.88;;;;;;;7.11;72.88;100898.22;5045177;28;20037;-45
2021/01/07 03:12:22;;;;;;;27.35;23.00;;;;;;;7.15;73.09;100885.28;5047198;28;20118;-47
2021/01/07 03:14:47;;;;;;;37.30;28.40;;;;;;;7.07;73.21;100883.69;5048946;28;20032;-48
2021/01/07 03:17:14;;;;;;;44.75;31.80;;;;;;;7.00;73.39;100889.03;5047449;28;20085;-46
2021/01/07 03:19:40;;;;;;;33.28;27.63;;;;;;;7.00;73.64;100898.88;5048442;28;20041;-46
2021/01/07 03:22:06;;;;;;;27.35;23.95;;;;;;;6.90;73.85;100882.53;5040835;28;20059;-46
2021/01/07 03:24:32;;;;;;;30.13;24.65;;;;;;;6.95;73.64;100877.38;5048146;28;20462;-48
2021/01/07 03:26:58;;;;;;;32.13;24.42;;;;;;;6.75;74.26;100859.63;5048585;28;20025;-46
2021/01/07 03:29:24;;;;;;;32.63;25.77;;;;;;;6.92;74.02;100853.81;5029698;28;20057;-46
2021/01/07 03:31:50;;;;;;;25.23;17.42;;;;;;;6.97;73.93;100840.66;5031512;28;20124;-45
2021/01/07 03:34:15;;;;;;;17.27;15.20;;;;;;;6.87;73.76;100837.63;5031622;28;20575;-47
2021/01/07 03:36:41;;;;;;;18.10;12.25;;;;;;;6.76;73.80;100833.78;5030942;28;20025;-44
2021/01/07 03:39:07;;;;;;;14.77;10.60;;;;;;;7.01;73.50;100825.84;5031753;28;20092;-44
2021/01/07 03:41:32;;;;;;;10.85;9.73;;;;;;;6.99;73.28;100820.75;5031386;28;20372;-45
2021/01/07 03:43:58;;;;;;;13.68;12.13;;;;;;;6.99;73.50;100826.09;5031874;28;20033;-45
2021/01/07 03:46:23;;;;;;;15.18;11.25;;;;;;;7.10;73.38;100819.25;5045374;28;20026;-45
2021/01/07 03:48:49;;;;;;;14.55;8.85;;;;;;;7.18;72.88;100808.31;5048419;28;20746;-43
2021/01/07 03:51:14;;;;;;;15.07;9.05;;;;;;;7.24;72.56;100814.66;5047019;28;20021;-46
2021/01/07 03:53:40;;;;;;;12.77;7.47;;;;;;;7.24;72.54;100805.81;5048584;28;20036;-43
2021/01/07 03:56:05;;;;;;;12.50;6.97;;;;;;;7.21;72.65;100806.28;5047280;28;20033;-42
2021/01/07 03:58:31;;;;;;;8.35;7.25;;;;;;;7.17;72.87;100797.88;5048122;28;20043;-45
2021/01/07 04:00:56;;;;;;;9.40;7.65;;;;;;;7.24;72.56;100792.50;5048349;28;20047;-41
2021/01/07 04:03:22;;;;;;;10.63;7.65;;;;;;;7.20;72.54;100794.78;5046759;28;20545;-42
2021/01/07 04:05:48;;;;;;;12.05;7.85;;;;;;;7.25;72.42;100799.47;5048599;28;20040;-48
2021/01/07 04:08:13;;;;;;;9.32;7.95;;;;;;;7.26;72.41;100799.25;5047128;28;20113;-49
2021/01/07 04:10:38;;;;;;;16.55;9.27;;;;;;;7.33;72.33;100799.22;5048033;28;20541;-42
2021/01/07 04:13:04;;;;;;;12.93;11.63;;;;;;;7.31;72.47;100799.44;5047431;28;20083;-42
2021/01/07 04:15:29;;;;;;;20.48;13.30;;;;;;;7.31;72.63;100795.94;5047666;28;20111;-43
2021/01/07 04:17:55;;;;;;;14.85;13.45;;;;;;;7.32;72.98;100792.25;5048293;28;20044;-42
2021/01/07 04:20:20;;;;;;;12.73;10.25;;;;;;;7.21;73.05;100777.75;5046754;28;20033;-43
2021/01/07 04:22:46;;;;;;;14.48;9.82;;;;;;;7.22;73.13;100776.69;5047929;28;20036;-46
2021/01/07 04:25:11;;;;;;;11.73;9.13;;;;;;;7.26;72.93;100777.94;5046574;28;20029;-44
2021/01/07 04:27:37;;;;;;;14.95;10.63;;;;;;;7.17;73.29;100777.38;5047888;28;20144;-47
2021/01/07 04:30:04;;;;;;;11.80;10.00;;;;;;;7.28;73.02;100762.50;5046970;28;20057;-43
2021/01/07 04:32:30;;;;;;;14.88;9.85;;;;;;;7.37;72.37;100779.06;5047217;28;20041;-44
2021/01/07 04:34:55;;;;;;;10.45;8.13;;;;;;;7.37;72.65;100779.06;5048310;28;20032;-46
2021/01/07 04:37:21;;;;;;;11.25;10.05;;;;;;;7.29;72.82;100774.84;5046265;28;20034;-43
2021/01/07 04:39:46;;;;;;;16.33;11.77;;;;;;;7.38;72.66;100778.03;5049130;28;20398;-44
2021/01/07 04:42:12;;;;;;;12.73;10.20;;;;;;;7.34;72.81;100779.50;5050156;28;20033;-43
2021/01/07 04:44:40;;;;;;;11.25;9.27;;;;;;;7.30;72.78;100775.63;5051541;28;20021;-47
2021/01/07 04:47:06;;;;;;;2.65;1.70;;;;;;;7.19;68.50;100777.97;5049334;28;20025;-47
2021/01/07 04:49:31;;;;;;;1.25;0.65;;;;;;;7.15;67.05;100774.09;5051200;28;20033;-46
2021/01/07 04:51:57;;;;;;;1.10;0.60;;;;;;;7.14;66.35;100769.78;5051519;28;20033;-44
2021/01/07 04:54:23;;;;;;;1.40;0.70;;;;;;;7.15;67.57;100776.78;5050460;28;20037;-43
2021/01/07 04:56:48;;;;;;;1.40;0.70;;;;;;;7.22;68.42;100783.91;5051787;28;20095;-49
2021/01/07 04:59:14;;;;;;;1.45;1.10;;;;;;;7.18;68.88;100778.97;5050274;28;20489;-50
2021/01/07 05:01:41;;;;;;;0.60;0.40;;;;;;;7.19;68.60;100783.31;5051379;28;20032;-46
2021/01/07 05:04:09;;;;;;;0.70;0.43;;;;;;;7.29;68.67;100782.84;5050410;28;20048;-47
2021/01/07 05:06:35;;;;;;;0.75;0.43;;;;;;;7.17;67.31;100790.72;5043833;28;20481;-47
2021/01/07 05:09:03;;;;;;;0.95;0.75;;;;;;;7.17;68.22;100785.38;5051160;28;20052;-44
2021/01/07 05:11:30;;;;;;;0.63;0.32;;;;;;;7.37;68.08;100790.56;5050507;28;20040;-46
2021/01/07 05:14:00;;;;;;;0.70;0.50;;;;;;;7.38;67.58;100784.19;5051566;28;20073;-46
2021/01/07 05:16:27;;;;;;;0.93;0.45;;;;;;;7.42;67.24;100792.59;5048954;28;20056;-43
2021/01/07 05:18:52;;;;;;;0.75;0.43;;;;;;;7.50;68.13;100795.00;5051146;28;20036;-46
2021/01/07 05:21:20;;;;;;;1.05;0.63;;;;;;;7.50;67.89;100805.66;5049264;28;20108;-49
2021/01/07 05:23:48;;;;;;;0.38;0.35;;;;;;;7.50;66.96;100802.16;5051139;28;20037;-44
2021/01/07 05:26:14;;;;;;;0.90;0.43;;;;;;;7.51;66.38;100801.13;5049274;28;20389;-46
2021/01/07 05:28:40;;;;;;;0.28;0.20;;;;;;;7.55;66.38;100791.66;5050862;28;20486;-46
2021/01/07 05:31:09;;;;;;;0.10;0.10;;;;;;;7.58;66.14;100797.38;5038145;28;20104;-44
2021/01/07 05:33:39;;;;;;;0.45;0.35;;;;;;;7.60;66.70;100786.47;5059109;28;20455;-46
2021/01/07 05:36:24;;;;;;;0.40;0.30;;;;;;;7.62;67.21;100784.41;5033961;28;20040;-47
2021/01/07 05:38:51;;;;;;;0.20;0.17;;;;;;;7.63;66.86;100780.72;5029522;28;20371;-46
2021/01/07 05:41:18;;;;;;;3.20;0.47;;;;;;;7.66;66.93;100780.28;5033389;28;20033;-44
2021/01/07 05:43:44;;;;;;;0.55;0.43;;;;;;;7.67;67.42;100781.91;5033804;28;20427;-46
2021/01/07 05:46:11;;;;;;;0.90;0.52;;;;;;;7.69;67.95;100777.16;5033627;28;20025;-49
2021/01/07 05:48:37;;;;;;;0.52;0.43;;;;;;;7.68;68.37;100780.03;5033640;28;20183;-46
2021/01/07 05:51:04;;;;;;;2.25;1.55;;;;;;;7.69;68.08;100789.69;5032451;28;20113;-44
2021/01/07 05:53:30;;;;;;;0.40;0.28;;;;;;;7.69;68.08;100787.81;5033868;28;20041;-46
2021/01/07 05:55:56;;;;;;;3.42;0.50;;;;;;;7.67;67.99;100791.75;5033374;28;20493;-48
2021/01/07 05:58:23;;;;;;;1.33;0.75;;;;;;;7.70;67.76;100786.00;5033192;28;20068;-46
2021/01/07 06:00:51;;;;;;;1.85;0.63;;;;;;;7.45;67.63;100785.97;5033640;28;20041;-45
2021/01/07 06:03:18;;;;;;;0.77;0.32;;;;;;;7.55;68.28;100792.47;5033138;28;20050;-45
2021/01/07 06:05:46;;;;;;;0.68;0.30;;;;;;;7.62;68.38;100794.28;5033355;28;20034;-45
2021/01/07 06:08:16;;;;;;;1.00;0.80;;;;;;;7.70;68.25;100810.00;5033416;28;20084;-44
2021/01/07 06:10:46;;;;;;;0.80;0.40;;;;;;;7.75;68.33;100810.19;5033141;28;20029;-44
2021/01/07 06:13:11;;;;;;;3.60;0.65;;;;;;;7.74;68.81;100805.88;5033462;28;20072;-46
2021/01/07 06:15:37;;;;;;;0.95;0.70;;;;;;;7.73;70.24;100809.56;5033374;28;20417;-47
2021/01/07 06:18:04;;;;;;;0.68;0.43;;;;;;;7.69;69.33;100809.19;5033386;28;20048;-44
2021/01/07 06:20:32;;;;;;;2.20;0.75;;;;;;;7.71;69.81;100816.97;5032910;28;20025;-44
2021/01/07 06:22:57;;;;;;;4.30;3.53;;;;;;;7.75;69.55;100810.19;5033009;28;20042;-44
2021/01/07 06:25:24;;;;;;;3.58;1.77;;;;;;;7.72;70.60;100813.28;5032727;28;20044;-44
2021/01/07 06:27:50;;;;;;;0.88;0.40;;;;;;;7.71;70.00;100817.81;5033065;28;20045;-44
2021/01/07 06:30:16;;;;;;;2.17;0.50;;;;;;;7.71;69.81;100814.31;5032806;28;20046;-45
2021/01/07 06:32:44;;;;;;;0.85;0.40;;;;;;;7.71;69.80;100814.31;5032903;28;20056;-44
2021/01/07 06:35:17;;;;;;;0.98;0.52;;;;;;;7.73;69.98;100812.22;5032538;28;20513;-44
2021/01/07 06:37:50;;;;;;;1.77;0.90;;;;;;;7.71;70.24;100814.31;5027172;28;20048;-43
2021/01/07 06:40:18;;;;;;;1.27;0.77;;;;;;;7.66;70.44;100811.47;5032392;28;20033;-45
2021/01/07 06:42:49;;;;;;;2.17;1.58;;;;;;;7.58;71.27;100821.38;5032494;28;20430;-47
2021/01/07 06:45:15;;;;;;;2.60;1.27;;;;;;;7.48;72.21;100818.38;5032541;28;20104;-46
2021/01/07 06:47:44;;;;;;;2.60;1.40;;;;;;;7.50;72.02;100819.00;5032377;28;20510;-46
2021/01/07 06:50:10;;;;;;;4.00;1.08;;;;;;;7.56;72.25;100823.47;5031891;28;20033;-44
2021/01/07 06:52:40;;;;;;;2.40;1.33;;;;;;;7.63;72.34;100817.25;5032671;28;20060;-46
2021/01/07 06:55:12;;;;;;;1.42;0.90;;;;;;;7.65;72.34;100823.19;5032278;28;20034;-43
2021/01/07 06:57:47;;;;;;;;;;;;;;;7.63;72.60;100828.75;5026346;28;20140;-44
2021/01/07 07:00:18;;;;;;;2.40;1.42;;;;;;;7.66;72.62;100824.81;5033179;28;20001;-46
2021/01/07 07:02:56;;;;;;;4.22;2.50;;;;;;;7.66;72.79;100831.00;5049348;28;20033;-47
2021/01/07 07:05:25;;;;;;;5.32;3.85;;;;;;;7.65;73.09;100831.19;5047168;28;20071;-44
2021/01/07 07:08:06;;;;;;;11.95;7.10;;;;;;;7.53;73.41;100829.22;5049060;28;20123;-49
2021/01/07 07:10:32;;;;;;;;;;;;;;;7.62;73.73;100835.09;5048344;28;20203;-45
2021/01/07 07:12:57;;;;;;;15.40;13.27;;;;;;;7.60;73.42;100839.84;5049109;28;20023;-47
2021/01/07 07:15:25;;;;;;;12.82;9.00;;;;;;;7.52;74.21;100824.09;5046393;28;20034;-46
2021/01/07 07:17:56;;;;;;;7.38;6.13;;;;;;;7.62;73.77;100832.44;5049473;28;20044;-48
2021/01/07 07:20:25;;;;;;;10.93;9.23;;;;;;;7.66;73.79;100838.16;5047054;28;20025;-43
2021/01/07 07:22:54;;;;;;;10.93;8.48;;;;;;;7.68;73.59;100836.91;5045709;28;20094;-49
2021/01/07 07:25:26;;;;;;;6.65;4.63;;;;;;;7.68;73.43;100839.59;5046639;28;20119;-46
2021/01/07 07:27:55;;;;;;;8.40;7.05;;;;;;;7.68;73.43;100839.59;5042846;28;20099;-44
2021/01/07 07:30:24;;;;;;;5.40;4.53;;;;;;;7.65;73.38;100833.88;5046856;28;20037;-45
2021/01/07 07:32:49;;;;;;;5.53;4.28;;;;;;;7.67;73.33;100837.94;5048895;28;20040;-43
2021/01/07 07:35:30;;;;;;;4.93;3.70;;;;;;;7.66;73.57;100838.16;5047128;28;20083;-48
2021/01/07 07:37:57;;;;;;;7.97;5.80;;;;;;;7.67;73.87;100839.81;5048587;28;20037;-43
2021/01/07 07:40:33;;;;;;;5.20;3.95;;;;;;;7.64;73.73;100833.03;5038769;28;20049;-44
2021/01/07 07:42:59;;;;;;;7.00;6.13;;;;;;;7.69;73.97;100835.06;5031637;28;20033;-47
2021/01/07 07:45:29;;;;;;;5.05;4.47;;;;;;;7.69;74.38;100838.53;5045770;28;20044;-44
2021/01/07 07:47:55;;;;;;;11.75;9.00;;;;;;;7.72;74.00;100845.31;5048443;28;20436;-44
2021/01/07 07:50:27;;;;;;;8.27;7.47;;;;;;;7.68;73.98;100844.94;5046526;28;20034;-44
2021/01/07 07:53:03;;;;;;;7.88;7.03;;;;;;;7.69;74.06;100837.72;5048313;28;20040;-43
2021/01/07 07:55:36;;;;;;;30.15;18.25;;;;;;;7.71;73.99;100846.34;5046927;28;20385;-47
2021/01/07 07:58:12;;;;;;;23.45;18.83;;;;;;;7.70;74.33;100844.72;5048120;28;20048;-48
2021/01/07 08:00:39;;;;;;;13.93;10.10;;;;;;;7.68;74.16;100844.09;5025051;28;20037;-46
2021/01/07 08:03:05;;;;;;;14.45;10.10;;;;;;;7.70;74.17;100840.19;5031554;28;20044;-44
2021/01/07 08:05:32;;;;;;;15.60;9.65;;;;;;;7.72;74.41;100845.31;5031367;28;20029;-47
2021/01/07 08:07:58;;;;;;;9.60;7.93;;;;;;;7.69;74.45;100846.53;5031539;28;20029;-44
2021/01/07 08:10:25;;;;;;;14.77;10.38;;;;;;;7.74;74.27;100848.56;5031264;28;20133;-45
2021/01/07 08:12:51;;;;;;;13.85;8.95;;;;;;;7.80;74.54;100852.22;5032092;28;20041;-43
2021/01/07 08:15:30;;;;;;;11.40;8.38;;;;;;;7.79;74.43;100850.59;5064378;28;20033;-45
2021/01/07 08:18:12;;;;;;;21.05;15.07;;;;;;;7.82;74.70;100861.66;5052434;28;20124;-46
2021/01/07 08:20:38;;;;;;;18.05;14.15;;;;;;;7.83;75.06;100865.13;5051969;28;20032;-43
2021/01/07 08:23:08;;;;;;;30.15;20.50;;;;;;;-146.19;100.00;63747.78;5051749;28;20041;-48
2021/01/07 08:25:33;;;;;;;27.13;22.23;;;;;;;-146.19;100.00;63747.78;5042995;28;20044;-47
2021/01/07 08:28:10;;;;;;;26.65;21.42;;;;;;;-146.19;100.00;63747.78;5037748;28;20096;-51
2021/01/07 08:30:42;;;;;;;25.33;19.30;;;;;;;-146.19;100.00;63747.78;5035732;28;20041;-50
2021/01/07 08:33:10;;;;;;;21.45;17.42;;;;;;;-146.19;100.00;63747.78;5037552;28;20052;-48
2021/01/07 08:35:37;;;;;;;19.40;15.73;;;;;;;-146.19;100.00;63747.78;5035245;28;20420;-51
2021/01/07 08:38:02;;;;;;;17.13;12.32;;;;;;;-146.19;100.00;63747.78;5037937;28;20038;-49
2021/01/07 08:40:28;;;;;;;12.30;10.38;;;;;;;-146.19;100.00;63747.78;5040251;28;20038;-48
2021/01/07 08:42:54;;;;;;;14.48;10.60;;;;;;;-146.19;100.00;63747.78;5035832;28;20480;-49
2021/01/07 08:45:27;;;;;;;30.73;27.60;;;;;;;-146.19;100.00;63747.78;5034176;28;20167;-47
2021/01/07 08:48:04;;;;;;;61.20;45.00;;;;;;;-146.19;100.00;63747.78;5034478;28;20450;-50
2021/01/07 08:50:31;;;;;;;57.97;44.30;;;;;;;-146.19;100.00;63747.78;5044933;28;20758;-50
2021/01/07 08:52:57;;;;;;;44.00;39.47;;;;;;;-146.19;100.00;63747.78;5032757;28;20093;-47
2021/01/07 08:55:45;;;;;;;36.30;32.35;;;;;;;-146.19;100.00;63747.78;5039600;28;20471;-47
2021/01/07 08:58:10;;;;;;;38.08;34.22;;;;;;;-146.19;100.00;63747.78;5033097;28;20025;-49
2021/01/07 09:00:36;;;;;;;25.30;19.90;;;;;;;-146.19;100.00;63747.78;5036437;28;20516;-47
2021/01/07 09:03:01;;;;;;;35.65;30.27;;;;;;;-146.19;100.00;63747.78;5037028;28;20034;-50
2021/01/07 09:05:29;;;;;;;35.25;31.38;;;;;;;-146.19;100.00;63747.78;5038951;28;20041;-47
2021/01/07 09:08:08;;;;;;;49.47;30.50;;;;;;;-146.19;100.00;63747.78;5036351;28;20172;-49
2021/01/07 09:10:34;;;;;;;41.97;31.25;;;;;;;-146.19;100.00;63747.78;5033704;28;20072;-49
2021/01/07 09:13:00;;;;;;;39.78;29.65;;;;;;;-146.19;100.00;63747.78;5037182;28;20090;-47
2021/01/07 09:15:26;;;;;;;38.38;30.13;;;;;;;-146.19;100.00;63747.78;5034175;28;20037;-51
2021/01/07 09:17:52;;;;;;;34.53;28.00;;;;;;;-146.19;100.00;63747.78;5038967;28;20093;-52
2021/01/07 09:20:20;;;;;;;39.20;28.80;;;;;;;-146.19;100.00;63747.78;5036488;28;20076;-54
2021/01/07 09:22:47;;;;;;;43.75;33.38;;;;;;;-146.19;100.00;63747.78;5035149;28;20040;-51
2021/01/07 09:25:17;;;;;;;42.97;33.15;;;;;;;-146.19;100.00;63747.78;5033678;28;20036;-54
2021/01/07 09:27:46;;;;;;;45.90;34.53;;;;;;;-146.19;100.00;63747.78;5032358;28;20051;-52
2021/01/07 09:30:13;;;;;;;33.42;27.90;;;;;;;-146.19;100.00;63747.78;5033134;28;20431;-51
2021/01/07 09:32:38;;;;;;;26.70;24.40;;;;;;;-146.19;100.00;63747.78;5033796;28;20056;-52
2021/01/07 09:35:05;;;;;;;21.88;17.88;;;;;;;-146.19;100.00;63747.78;5033214;28;20470;-51
2021/01/07 09:37:34;;;;;;;21.77;19.70;;;;;;;-146.19;100.00;63747.78;5034245;28;20379;-48
2021/01/07 09:40:00;;;;;;;23.20;20.75;;;;;;;-146.19;100.00;63747.78;5034258;28;20034;-49
2021/01/07 09:42:29;;;;;;;29.08;21.40;;;;;;;-146.19;100.00;63747.78;5031781;28;20040;-49
2021/01/07 09:44:55;;;;;;;25.15;19.15;;;;;;;-146.19;100.00;63747.78;5032139;28;20052;-48
2021/01/07 09:47:22;;;;;;;23.98;17.73;;;;;;;-146.19;100.00;63747.78;5035621;28;20038;-51
2021/01/07 09:49:47;;;;;;;17.02;14.32;;;;;;;-146.19;100.00;63747.78;5035850;28;20461;-49
2021/01/07 09:52:13;;;;;;;9.57;7.68;;;;;;;-146.19;100.00;63747.78;5033918;28;20084;-54
2021/01/07 09:54:39;;;;;;;8.25;5.72;;;;;;;-146.19;100.00;63747.78;5033208;28;20037;-50
2021/01/07 09:57:05;;;;;;;17.77;11.02;;;;;;;-146.19;100.00;63747.78;5032907;28;20035;-52
2021/01/07 09:59:31;;;;;;;24.17;16.48;;;;;;;-146.19;100.00;63747.78;5033592;28;20493;-54
2021/01/07 10:01:57;;;;;;;21.23;13.93;;;;;;;-146.19;100.00;63747.78;5034173;28;20042;-52
2021/01/07 10:04:23;;;;;;;13.23;11.77;;;;;;;-146.19;100.00;63747.78;5033184;28;20897;-49
2021/01/07 10:06:49;;;;;;;16.25;13.27;;;;;;;-146.19;100.00;63747.78;5033264;28;20534;-55
2021/01/07 10:09:16;;;;;;;28.38;25.40;;;;;;;-146.19;100.00;63747.78;5027087;28;20052;-53
2021/01/07 10:11:41;;;;;;;37.90;32.72;;;;;;;-146.19;100.00;63747.78;5026149;28;20506;-53
2021/01/07 10:14:07;;;;;;;38.63;30.88;;;;;;;-146.19;100.00;63747.78;5025085;28;20041;-58
2021/01/07 10:16:33;;;;;;;62.72;47.28;;;;;;;-146.19;100.00;63747.78;5043634;28;20056;-53
2021/01/07 10:19:00;;;;;;;56.08;49.58;;;;;;;-146.19;100.00;63747.78;5040399;28;20038;-52
2021/01/07 10:21:26;;;;;;;65.03;49.25;;;;;;;-146.19;100.00;63747.78;5041831;28;20041;-52
2021/01/07 10:23:52;;;;;;;31.88;23.45;;;;;;;-146.19;100.00;63747.78;5031332;28;20033;-52
2021/01/07 10:26:19;;;;;;;26.60;18.05;;;;;;;-146.19;100.00;63747.78;5041103;28;20040;-55
2021/01/07 10:28:47;;;;;;;26.25;17.05;;;;;;;-146.19;100.00;63747.78;5026488;28;20144;-56
2021/01/07 10:31:17;;;;;;;31.70;21.70;;;;;;;-146.19;100.00;63747.78;5040648;28;20041;-57
2021/01/07 10:33:44;;;;;;;30.10;25.58;;;;;;;-146.19;100.00;63747.78;5040300;28;20041;-54
2021/01/07 10:36:16;;;;;;;32.90;26.75;;;;;;;-146.19;100.00;63747.78;5040535;28;20040;-56
2021/01/07 10:38:46;;;;;;;34.22;30.77;;;;;;;-146.19;100.00;63747.78;5038323;28;20144;-56
2021/01/07 10:41:12;;;;;;;43.13;30.05;;;;;;;-146.19;100.00;63747.78;5026679;28;20456;-55
2021/01/07 10:43:39;;;;;;;29.25;22.90;;;;;;;-146.19;100.00;63747.78;5026726;28;20044;-50
2021/01/07 10:46:04;;;;;;;24.85;18.90;;;;;;;-146.19;100.00;63747.78;5041169;28;20142;-54
2021/01/07 10:48:35;;;;;;;24.05;18.80;;;;;;;-146.19;100.00;63747.78;5041955;28;20188;-56
2021/01/07 10:51:02;;;;;;;22.88;16.35;;;;;;;-146.19;100.00;63747.78;5027700;28;20136;-55
2021/01/07 10:53:46;;;;;;;23.60;14.00;;;;;;;-146.19;100.00;63747.78;5026324;28;20046;-51
2021/01/07 10:56:29;;;;;;;10.85;9.18;;;;;;;-146.19;100.00;63747.78;5026582;28;20413;-52
2021/01/07 10:59:09;;;;;;;19.80;14.20;;;;;;;-146.19;100.00;63747.78;5024608;28;20049;-53
2021/01/07 11:02:07;;;;;;;15.18;13.60;;;;;;;-146.19;100.00;63747.78;5019570;28;20038;-55
2021/01/07 11:04:44;;;;;;;36.88;33.08;;;;;;;-146.19;100.00;63747.78;5031217;28;20120;-55
2021/01/07 11:07:42;;;;;;;21.58;19.33;;;;;;;-146.19;100.00;63747.78;5033106;28;20044;-56
2021/01/07 11:10:08;;;;;;;20.73;16.15;;;;;;;-146.19;100.00;63747.78;5015610;28;20065;-57
2021/01/07 11:12:40;;;;;;;23.75;20.15;;;;;;;-146.19;100.00;63747.78;5025720;28;20048;-57
2021/01/07 11:15:12;;;;;;;26.13;22.95;;;;;;;-146.19;100.00;63747.78;5028821;28;20049;-54
2021/01/07 11:17:46;;;;;;;32.65;21.08;;;;;;;-146.19;100.00;63747.78;5026122;28;20041;-54
2021/01/07 11:20:14;;;;;;;28.90;24.80;;;;;;;-146.19;100.00;63747.78;5030364;28;20041;-48